createdAt,value
2023-03-18T00:00:23.577Z,67.53
2023-03-18T00:02:52.753Z,67.32
2023-03-18T00:05:20.973Z,67.67
2023-03-18T00:07:50.217Z,67.53
2023-03-18T00:10:18.844Z,67.50
2023-03-18T00:12:46.719Z,67.45
2023-03-18T00:15:18.184Z,67.45
2023-03-18T00:17:46.599Z,67.57
2023-03-18T00:20:18.334Z,67.58
2023-03-18T00:22:46.839Z,67.63
2023-03-18T00:25:15.705Z,67.72
2023-03-18T00:27:43.387Z,67.94
2023-03-18T00:30:12.943Z,68.01
2023-03-18T00:32:41.452Z,68.12
2023-03-18T00:35:10.751Z,68.45
2023-03-18T00:37:39.891Z,68.19
2023-03-18T00:40:10.704Z,68.26
2023-03-18T00:42:47.320Z,68.45
2023-03-18T00:45:17.086Z,68.32
2023-03-18T00:47:45.712Z,68.42
2023-03-18T00:50:13.668Z,68.78
2023-03-18T00:52:42.765Z,68.86
2023-03-18T00:55:11.341Z,69.03
2023-03-18T00:57:39.093Z,69.18
2023-03-18T01:00:07.979Z,69.36
2023-03-18T01:02:35.868Z,69.50
2023-03-18T01:05:04.420Z,69.58
2023-03-18T01:07:32.093Z,69.81
2023-03-18T01:10:01.184Z,69.48
2023-03-18T01:12:28.871Z,69.72
2023-03-18T01:14:56.615Z,69.84
2023-03-18T01:17:24.261Z,69.99
2023-03-18T01:19:52.137Z,69.99
2023-03-18T01:22:20.064Z,70.02
2023-03-18T01:24:48.145Z,70.09
2023-03-18T01:27:17.225Z,70.38
2023-03-18T01:29:46.451Z,70.26
2023-03-18T01:32:14.260Z,70.48
2023-03-18T01:34:42.263Z,70.54
2023-03-18T01:37:10.036Z,70.33
2023-03-18T01:39:37.810Z,70.53
2023-03-18T01:42:06.404Z,70.62
2023-03-18T01:44:35.430Z,70.71
2023-03-18T01:47:03.159Z,70.82
2023-03-18T01:49:35.603Z,71.83
2023-03-18T01:52:05.264Z,72.62
2023-03-18T01:54:37.101Z,73.21
2023-03-18T01:57:05.617Z,73.33
2023-03-18T01:59:39.318Z,73.40
2023-03-18T02:02:09.132Z,73.89
2023-03-18T02:04:41.122Z,75.29
2023-03-18T02:07:14.870Z,76.09
2023-03-18T02:09:42.629Z,76.94
2023-03-18T02:12:11.940Z,77.21
2023-03-18T02:14:41.234Z,78.08
2023-03-18T02:17:13.540Z,77.95
2023-03-18T02:19:51.769Z,78.67
2023-03-18T02:22:26.492Z,78.81
2023-03-18T02:25:05.210Z,78.91
2023-03-18T02:27:37.328Z,78.97
2023-03-18T02:30:11.342Z,78.69
2023-03-18T02:32:40.740Z,78.85
2023-03-18T02:35:12.078Z,79.31
2023-03-18T02:37:39.830Z,79.39
2023-03-18T02:40:16.458Z,79.48
2023-03-18T02:42:46.055Z,79.48
2023-03-18T02:45:24.812Z,78.83
2023-03-18T02:47:54.062Z,78.21
2023-03-18T02:50:21.766Z,77.95
2023-03-18T02:52:49.433Z,77.79
2023-03-18T02:55:17.588Z,78.02
2023-03-18T02:57:46.773Z,77.95
2023-03-18T03:00:16.343Z,77.81
2023-03-18T03:02:45.291Z,77.53
2023-03-18T03:05:13.184Z,77.73
2023-03-18T03:07:41.032Z,77.43
2023-03-18T03:10:10.029Z,77.61
2023-03-18T03:12:39.744Z,77.68
2023-03-18T03:15:09.968Z,77.39
2023-03-18T03:17:37.917Z,77.63
2023-03-18T03:20:07.468Z,77.68
2023-03-18T03:22:35.643Z,77.45
2023-03-18T03:25:03.412Z,77.43
2023-03-18T03:27:31.526Z,77.32
2023-03-18T03:29:59.407Z,77.52
2023-03-18T03:32:29.016Z,77.56
2023-03-18T03:34:56.650Z,77.80
2023-03-18T03:37:24.386Z,78.21
2023-03-18T03:39:52.031Z,78.32
2023-03-18T03:42:19.740Z,78.28
2023-03-18T03:44:47.494Z,78.55
2023-03-18T03:47:15.367Z,78.50
2023-03-18T03:49:44.406Z,78.40
2023-03-18T03:52:12.303Z,78.52
2023-03-18T03:54:41.492Z,78.34
2023-03-18T03:57:09.325Z,78.45
2023-03-18T03:59:37.085Z,78.40
2023-03-18T04:02:04.998Z,78.50
2023-03-18T04:04:32.939Z,78.64
2023-03-18T04:07:03.158Z,78.61
2023-03-18T04:09:30.854Z,78.70
2023-03-18T04:11:58.515Z,78.51
2023-03-18T04:14:26.288Z,78.70
2023-03-18T04:16:56.021Z,78.94
2023-03-18T04:19:23.764Z,79.07
2023-03-18T04:21:51.462Z,78.89
2023-03-18T04:24:21.069Z,78.93
2023-03-18T04:26:48.926Z,78.72
2023-03-18T04:29:17.129Z,79.26
2023-03-18T04:31:44.839Z,79.13
2023-03-18T04:34:12.562Z,79.37
2023-03-18T04:36:40.248Z,79.31
2023-03-18T04:39:09.596Z,79.52
2023-03-18T04:41:38.718Z,79.37
2023-03-18T04:44:07.033Z,79.89
2023-03-18T04:46:34.759Z,80.03
2023-03-18T04:49:02.695Z,80.20
2023-03-18T04:51:30.426Z,79.81
2023-03-18T04:53:58.400Z,80.04
2023-03-18T04:56:26.262Z,80.23
2023-03-18T04:58:55.326Z,80.39
2023-03-18T05:01:23.331Z,80.40
2023-03-18T05:03:51.278Z,80.63
2023-03-18T05:06:23.789Z,81.15
2023-03-18T05:08:51.280Z,81.10
2023-03-18T05:11:18.975Z,81.47
2023-03-18T05:13:47.018Z,81.28
2023-03-18T05:16:16.325Z,81.75
2023-03-18T05:18:44.692Z,81.51
2023-03-18T05:21:12.717Z,81.91
2023-03-18T05:23:41.050Z,81.72
2023-03-18T05:26:09.880Z,81.75
2023-03-18T05:28:37.617Z,81.49
2023-03-18T05:31:05.598Z,81.05
2023-03-18T05:33:34.638Z,81.17
2023-03-18T05:36:02.686Z,81.18
2023-03-18T05:38:30.394Z,81.23
2023-03-18T05:40:58.071Z,80.88
2023-03-18T05:43:26.235Z,80.94
2023-03-18T05:45:54.203Z,80.83
2023-03-18T05:48:22.260Z,80.79
2023-03-18T05:50:51.874Z,80.64
2023-03-18T05:53:19.619Z,80.65
2023-03-18T05:55:47.347Z,80.88
2023-03-18T05:58:15.085Z,80.36
2023-03-18T06:00:43.388Z,80.18
2023-03-18T06:03:11.127Z,80.38
2023-03-18T06:05:38.878Z,80.21
2023-03-18T06:08:07.953Z,80.18
2023-03-18T06:10:35.778Z,80.27
2023-03-18T06:13:03.543Z,80.14
2023-03-18T06:15:32.282Z,80.16
2023-03-18T06:18:00.231Z,80.43
2023-03-18T06:20:27.933Z,80.76
2023-03-18T06:22:55.647Z,80.82
2023-03-18T06:25:25.382Z,80.66
2023-03-18T06:27:53.062Z,80.84
2023-03-18T06:30:21.474Z,80.86
2023-03-18T06:32:49.246Z,80.83
2023-03-18T06:35:17.284Z,80.57
2023-03-18T06:37:45.117Z,80.41
2023-03-18T06:40:13.336Z,80.50
2023-03-18T06:42:42.701Z,80.65
2023-03-18T06:45:11.279Z,80.52
2023-03-18T06:47:39.394Z,80.22
2023-03-18T06:50:07.663Z,80.21
2023-03-18T06:52:35.377Z,79.98
2023-03-18T06:55:03.067Z,79.96
2023-03-18T06:57:30.729Z,80.02
2023-03-18T06:59:59.916Z,79.78
2023-03-18T07:02:28.442Z,79.21
2023-03-18T07:04:56.261Z,79.29
2023-03-18T07:07:24.680Z,79.12
2023-03-18T07:09:52.585Z,78.96
2023-03-18T07:12:20.393Z,78.98
2023-03-18T07:14:48.597Z,78.96
2023-03-18T07:17:17.684Z,79.13
2023-03-18T07:19:45.713Z,79.62
2023-03-18T07:22:13.506Z,79.54
2023-03-18T07:24:41.415Z,79.43
2023-03-18T07:27:09.173Z,79.39
2023-03-18T07:29:37.208Z,79.13
2023-03-18T07:32:05.161Z,79.25
2023-03-18T07:34:34.352Z,79.33
2023-03-18T07:37:02.405Z,79.06
2023-03-18T07:39:30.284Z,78.76
2023-03-18T07:41:58.099Z,78.65
2023-03-18T07:44:26.139Z,78.15
2023-03-18T07:46:54.122Z,78.10
2023-03-18T07:49:21.954Z,78.28
2023-03-18T07:51:51.277Z,78.48
2023-03-18T07:54:20.071Z,78.63
2023-03-18T07:56:48.805Z,78.31
2023-03-18T07:59:18.682Z,78.31
2023-03-18T08:01:46.607Z,78.17
2023-03-18T08:04:14.328Z,77.97
2023-03-18T08:06:42.162Z,78.21
2023-03-18T08:09:11.298Z,78.23
2023-03-18T08:11:39.023Z,78.48
2023-03-18T08:14:07.294Z,78.37
2023-03-18T08:16:35.121Z,78.45
2023-03-18T08:19:02.893Z,78.50
2023-03-18T08:21:30.789Z,78.23
2023-03-18T08:23:58.505Z,78.50
2023-03-18T08:26:27.841Z,78.13
2023-03-18T08:28:55.821Z,78.05
2023-03-18T08:31:23.605Z,78.37
2023-03-18T08:33:54.122Z,78.56
2023-03-18T08:36:21.909Z,78.62
2023-03-18T08:38:49.670Z,78.13
2023-03-18T08:41:18.005Z,77.89
2023-03-18T08:43:47.147Z,77.80
2023-03-18T08:46:15.737Z,77.43
2023-03-18T08:48:43.447Z,77.12
2023-03-18T08:51:11.407Z,76.90
2023-03-18T08:53:39.343Z,76.81
2023-03-18T08:56:07.732Z,76.53
2023-03-18T08:58:36.125Z,76.09
2023-03-18T09:01:06.070Z,75.69
2023-03-18T09:03:34.570Z,75.61
2023-03-18T09:06:03.306Z,75.52
2023-03-18T09:08:31.204Z,75.45
2023-03-18T09:10:59.677Z,75.33
2023-03-18T09:13:27.801Z,75.15
2023-03-18T09:15:55.601Z,75.14
2023-03-18T09:18:25.063Z,75.38
2023-03-18T09:20:53.644Z,75.09
2023-03-18T09:23:22.540Z,74.48
2023-03-18T09:25:51.508Z,73.89
2023-03-18T09:28:19.285Z,74.06
2023-03-18T09:30:47.098Z,73.36
2023-03-18T09:33:16.076Z,72.83
2023-03-18T09:35:45.758Z,73.23
2023-03-18T09:38:15.715Z,72.94
2023-03-18T09:40:52.840Z,72.32
2023-03-18T09:43:35.041Z,71.93
2023-03-18T09:46:11.621Z,71.49
2023-03-18T09:49:00.112Z,71.31
2023-03-18T09:51:37.421Z,71.55
2023-03-18T09:54:11.588Z,71.36
2023-03-18T09:56:40.158Z,71.05
2023-03-18T09:59:16.704Z,71.20
2023-03-18T10:01:47.412Z,70.48
2023-03-18T10:04:21.858Z,70.41
2023-03-18T10:06:55.483Z,70.14
2023-03-18T10:09:28.519Z,70.25
2023-03-18T10:12:02.538Z,69.70
2023-03-18T10:14:41.279Z,69.81
2023-03-18T10:17:17.942Z,69.40
2023-03-18T10:19:50.004Z,68.82
2023-03-18T10:22:33.363Z,68.42
2023-03-18T10:25:10.166Z,68.70
2023-03-18T10:27:47.164Z,68.44
2023-03-18T10:30:32.580Z,68.15
2023-03-18T10:33:08.036Z,67.60
2023-03-18T10:35:41.641Z,67.04
2023-03-18T10:38:19.778Z,66.79
2023-03-18T10:40:48.020Z,66.98
2023-03-18T10:43:17.925Z,67.04
2023-03-18T10:45:47.742Z,67.09
2023-03-18T10:48:22.204Z,66.81
2023-03-18T10:51:07.511Z,66.94
2023-03-18T10:53:43.373Z,66.63
2023-03-18T10:56:13.189Z,66.75
2023-03-18T10:58:42.225Z,66.52
2023-03-18T11:01:13.048Z,66.51
2023-03-18T11:03:45.714Z,66.12
2023-03-18T11:06:20.323Z,65.64
2023-03-18T11:08:50.514Z,65.69
2023-03-18T11:11:24.402Z,65.49
2023-03-18T11:13:54.016Z,65.23
2023-03-18T11:16:25.935Z,65.29
2023-03-18T11:18:54.739Z,64.67
2023-03-18T11:21:23.757Z,64.18
2023-03-18T11:24:21.036Z,63.15
2023-03-18T11:26:54.005Z,63.20
2023-03-18T11:29:25.235Z,63.48
2023-03-18T11:31:57.999Z,63.22
2023-03-18T11:34:29.142Z,62.67
2023-03-18T11:37:01.167Z,61.99
2023-03-18T11:39:32.604Z,61.42
2023-03-18T11:42:02.702Z,61.58
2023-03-18T11:44:32.653Z,61.30
2023-03-18T11:47:06.287Z,60.03
2023-03-18T11:49:34.431Z,59.02
2023-03-18T11:52:22.752Z,59.05
2023-03-18T11:55:10.744Z,59.37
2023-03-18T11:57:58.311Z,58.51
2023-03-18T12:00:33.357Z,58.28
2023-03-18T12:03:42.226Z,57.76
2023-03-18T12:06:20.386Z,57.78
2023-03-18T12:09:00.956Z,57.37
2023-03-18T12:11:48.641Z,56.72
2023-03-18T12:14:25.795Z,56.36
2023-03-18T12:17:03.909Z,56.18
2023-03-18T12:19:54.226Z,55.14
2023-03-18T12:22:32.993Z,54.77
2023-03-18T12:25:33.170Z,54.10
2023-03-18T12:28:11.773Z,53.81
2023-03-18T12:30:54.820Z,54.50
2023-03-18T12:33:45.546Z,54.74
2023-03-18T12:36:23.836Z,55.03
2023-03-18T12:39:26.319Z,54.59
2023-03-18T12:42:02.690Z,54.48
2023-03-18T12:44:47.347Z,54.17
2023-03-18T12:47:21.120Z,54.17
2023-03-18T12:49:53.296Z,54.57
2023-03-18T12:52:30.129Z,54.27
2023-03-18T12:55:05.724Z,53.68
2023-03-18T12:57:42.013Z,53.45
2023-03-18T13:00:20.033Z,52.79
2023-03-18T13:02:54.164Z,52.54
2023-03-18T13:05:34.731Z,52.91
2023-03-18T13:08:21.918Z,52.77
2023-03-18T13:10:59.671Z,53.40
2023-03-18T13:13:29.495Z,54.06
2023-03-18T13:15:59.592Z,54.22
2023-03-18T13:18:34.519Z,54.23
2023-03-18T13:21:02.677Z,53.96
2023-03-18T13:23:52.423Z,54.32
2023-03-18T13:26:32.600Z,54.28
2023-03-18T13:29:14.004Z,54.29
2023-03-18T13:31:53.019Z,54.39
2023-03-18T13:34:40.063Z,54.14
2023-03-18T13:37:22.721Z,54.04
2023-03-18T13:40:17.934Z,53.67
2023-03-18T13:42:49.056Z,54.29
2023-03-18T13:45:27.949Z,54.87
2023-03-18T13:48:02.165Z,55.28
2023-03-18T13:50:37.348Z,55.76
2023-03-18T13:53:06.618Z,55.98
2023-03-18T13:55:42.889Z,56.11
2023-03-18T13:58:34.922Z,57.03
2023-03-18T14:01:29.736Z,57.45
2023-03-18T14:04:01.958Z,58.24
2023-03-18T14:06:55.321Z,58.78
2023-03-18T14:09:32.373Z,60.44
2023-03-18T14:12:18.843Z,62.72
2023-03-18T14:15:08.024Z,68.08
2023-03-18T14:17:48.648Z,70.05
2023-03-18T14:20:41.898Z,71.74
2023-03-18T14:23:31.366Z,73.45
2023-03-18T14:26:04.479Z,74.39
2023-03-18T14:28:45.372Z,75.42
2023-03-18T14:31:33.141Z,75.35
2023-03-18T14:34:05.667Z,74.18
2023-03-18T14:37:06.698Z,75.01
2023-03-18T14:39:39.479Z,74.24
2023-03-18T14:42:16.728Z,75.05
2023-03-18T14:44:49.017Z,74.86
2023-03-18T14:47:35.622Z,74.73
2023-03-18T14:50:06.850Z,75.25
2023-03-18T14:52:38.453Z,73.42
2023-03-18T14:55:10.422Z,71.97
2023-03-18T14:57:38.119Z,71.26
2023-03-18T15:00:08.589Z,70.91
2023-03-18T15:02:40.453Z,71.31
2023-03-18T15:05:08.792Z,71.56
2023-03-18T15:07:40.373Z,70.67
2023-03-18T15:10:11.545Z,70.84
2023-03-18T15:12:39.850Z,71.02
2023-03-18T15:15:13.805Z,71.52
2023-03-18T15:17:42.454Z,72.58
2023-03-18T15:20:13.945Z,72.90
2023-03-18T15:22:44.600Z,73.31
2023-03-18T15:25:20.515Z,73.74
2023-03-18T15:27:49.684Z,72.70
2023-03-18T15:30:29.113Z,71.89
2023-03-18T15:33:04.661Z,70.80
2023-03-18T15:35:33.164Z,71.33
2023-03-18T15:38:19.306Z,71.09
2023-03-18T15:40:50.670Z,70.59
2023-03-18T15:43:26.916Z,69.89
2023-03-18T15:45:57.056Z,70.81
2023-03-18T15:48:30.763Z,71.04
2023-03-18T15:51:00.736Z,71.66
2023-03-18T15:53:34.778Z,71.99
2023-03-18T15:56:14.152Z,72.25
2023-03-18T15:58:44.810Z,72.54
2023-03-18T16:01:17.977Z,72.14
2023-03-18T16:03:47.432Z,72.37
2023-03-18T16:06:16.689Z,72.29
2023-03-18T16:08:46.337Z,72.16
2023-03-18T16:11:16.636Z,72.61
2023-03-18T16:13:45.293Z,72.52
2023-03-18T16:16:18.914Z,72.76
2023-03-18T16:18:46.674Z,72.07
2023-03-18T16:21:15.315Z,71.82
2023-03-18T16:23:46.618Z,71.90
2023-03-18T16:26:17.369Z,72.17
2023-03-18T16:28:48.340Z,72.63
2023-03-18T16:31:16.312Z,73.42
2023-03-18T16:33:46.266Z,74.42
2023-03-18T16:36:26.595Z,75.17
2023-03-18T16:38:56.099Z,75.21
2023-03-18T16:41:23.855Z,75.52
2023-03-18T16:43:52.751Z,75.68
2023-03-18T16:46:20.562Z,75.89
2023-03-18T16:48:49.583Z,75.36
2023-03-18T16:51:19.252Z,75.53
2023-03-18T16:53:47.140Z,75.67
2023-03-18T16:56:18.280Z,75.08
2023-03-18T16:58:46.454Z,75.10
2023-03-18T17:01:16.658Z,75.13
2023-03-18T17:03:45.738Z,75.37
2023-03-18T17:06:14.915Z,75.35
2023-03-18T17:08:42.773Z,75.00
2023-03-18T17:11:18.072Z,75.37
2023-03-18T17:13:48.716Z,75.82
2023-03-18T17:16:20.571Z,75.95
2023-03-18T17:18:48.357Z,75.90
2023-03-18T17:21:17.080Z,75.88
2023-03-18T17:23:45.636Z,75.96
2023-03-18T17:26:15.998Z,76.28
2023-03-18T17:28:46.026Z,76.06
2023-03-18T17:31:15.552Z,76.60
2023-03-18T17:33:43.551Z,76.92
2023-03-18T17:36:11.276Z,76.62
2023-03-18T17:38:41.967Z,76.95
2023-03-18T17:41:22.201Z,77.30
2023-03-18T17:43:51.052Z,77.29
2023-03-18T17:46:24.558Z,77.52
2023-03-18T17:48:58.721Z,77.61
2023-03-18T17:51:27.326Z,77.82
2023-03-18T17:53:59.092Z,77.59
2023-03-18T17:56:27.949Z,77.87
2023-03-18T17:58:56.091Z,78.21
2023-03-18T18:01:27.421Z,78.30
2023-03-18T18:03:57.072Z,78.53
2023-03-18T18:06:28.771Z,78.78
2023-03-18T18:09:00.600Z,78.98
2023-03-18T18:11:33.132Z,78.69
2023-03-18T18:14:13.812Z,78.93
2023-03-18T18:16:43.635Z,79.05
2023-03-18T18:19:11.933Z,79.35
2023-03-18T18:21:39.793Z,79.52
2023-03-18T18:24:23.694Z,79.78
2023-03-18T18:27:00.012Z,79.69
2023-03-18T18:29:42.354Z,79.77
2023-03-18T18:32:39.085Z,79.33
2023-03-18T18:38:21.002Z,80.02
2023-03-18T18:41:07.768Z,79.89
2023-03-18T18:52:25.914Z,80.13
2023-03-18T18:55:11.592Z,80.20
2023-03-18T18:57:56.469Z,80.66
2023-03-18T19:36:12.354Z,83.48
2023-03-18T20:04:59.239Z,84.44
2023-03-18T20:29:41.724Z,84.31
2023-03-18T20:55:51.729Z,84.16
2023-03-18T20:58:21.950Z,84.29
2023-03-18T21:00:50.787Z,83.81
2023-03-18T21:03:24.414Z,83.79
2023-03-18T21:05:53.314Z,83.25
2023-03-18T21:08:21.225Z,82.43
2023-03-18T21:10:48.998Z,81.69
2023-03-18T21:13:39.946Z,81.02
2023-03-18T21:16:12.997Z,80.45
2023-03-18T21:18:43.575Z,80.18
2023-03-18T21:21:22.309Z,79.48
2023-03-18T21:23:52.876Z,78.22
2023-03-18T21:26:21.751Z,77.78
2023-03-18T21:28:52.807Z,77.32
2023-03-18T21:31:25.993Z,77.30
2023-03-18T21:34:01.796Z,76.78
2023-03-18T21:36:29.647Z,76.79
2023-03-18T21:38:57.884Z,75.99
2023-03-18T21:41:29.969Z,75.36
2023-03-18T21:44:01.393Z,74.32
2023-03-18T21:46:30.611Z,73.44
2023-03-18T21:49:00.043Z,73.33
2023-03-18T21:51:39.196Z,72.83
2023-03-18T21:54:09.388Z,72.66
2023-03-18T21:56:37.329Z,71.97
2023-03-18T21:59:05.207Z,71.91
2023-03-18T22:01:33.791Z,71.93
2023-03-18T22:04:03.326Z,71.56
2023-03-18T22:06:31.357Z,71.77
2023-03-18T22:08:59.741Z,71.79
2023-03-18T22:11:29.131Z,71.56
2023-03-18T22:13:58.022Z,71.20
2023-03-18T22:16:26.646Z,71.57
2023-03-18T22:18:56.833Z,71.38
2023-03-18T22:21:33.029Z,71.39
2023-03-18T22:24:00.992Z,71.26
2023-03-18T22:26:35.086Z,71.00
2023-03-18T22:29:04.469Z,70.97
2023-03-18T22:31:32.359Z,70.93
2023-03-18T22:34:04.168Z,70.82
2023-03-18T22:36:36.233Z,70.54
2023-03-18T22:39:09.201Z,70.83
2023-03-18T22:41:47.024Z,70.82
2023-03-18T22:44:23.947Z,70.83
2023-03-18T22:46:56.254Z,71.03
2023-03-18T22:49:25.343Z,71.05
2023-03-18T22:51:58.100Z,70.83
2023-03-18T22:54:27.213Z,71.09
2023-03-18T22:56:55.483Z,71.32
2023-03-18T22:59:24.089Z,71.35
2023-03-18T23:01:51.984Z,71.90
2023-03-18T23:04:19.921Z,71.81
2023-03-18T23:06:47.605Z,71.94
2023-03-18T23:09:18.917Z,72.15
2023-03-18T23:11:46.604Z,72.11
2023-03-18T23:14:14.334Z,72.14
2023-03-18T23:16:42.098Z,72.09
2023-03-18T23:19:09.820Z,72.35
2023-03-18T23:21:37.739Z,72.29
2023-03-18T23:24:05.931Z,72.58
2023-03-18T23:26:35.080Z,72.47
2023-03-18T23:29:02.755Z,72.27
2023-03-18T23:31:30.512Z,72.42
2023-03-18T23:33:58.399Z,72.45
2023-03-18T23:36:26.300Z,72.19
2023-03-18T23:38:54.297Z,71.97
2023-03-18T23:41:21.964Z,72.29
2023-03-18T23:43:51.027Z,72.43
2023-03-18T23:46:20.073Z,72.46
2023-03-18T23:48:47.995Z,72.48
2023-03-18T23:51:15.818Z,72.67
2023-03-18T23:53:43.596Z,72.85
2023-03-18T23:56:11.767Z,73.29
2023-03-18T23:58:39.457Z,75.23
